createdAt,value
2019-05-13T00:01:27.159Z,4.84
2019-05-13T00:04:33.902Z,4.66
2019-05-13T00:07:40.521Z,4.79
2019-05-13T00:10:48.294Z,4.54
2019-05-13T00:13:54.872Z,4.81
2019-05-13T00:17:03.997Z,4.45
2019-05-13T00:20:10.244Z,4.62
2019-05-13T00:23:16.760Z,4.77
2019-05-13T00:26:24.469Z,4.63
2019-05-13T00:29:31.177Z,4.63
2019-05-13T00:32:37.836Z,4.43
2019-05-13T00:35:44.801Z,4.86
2019-05-13T00:38:53.546Z,4.10
2019-05-13T00:42:00.090Z,4.05
2019-05-13T00:45:08.226Z,4.31
2019-05-13T00:48:14.747Z,4.29
2019-05-13T00:51:24.408Z,4.30
2019-05-13T00:54:29.789Z,4.26
2019-05-13T00:57:36.328Z,4.00
2019-05-13T01:00:44.373Z,4.25
2019-05-13T01:03:53.175Z,4.38
2019-05-13T01:06:59.244Z,4.58
2019-05-13T01:10:06.655Z,4.39
2019-05-13T01:13:13.766Z,4.00
2019-05-13T01:16:23.423Z,4.14
2019-05-13T01:19:30.479Z,4.43
2019-05-13T01:22:37.522Z,4.30
2019-05-13T01:25:44.739Z,4.32
2019-05-13T01:28:55.366Z,4.34
2019-05-13T01:32:04.260Z,4.34
2019-05-13T01:35:10.655Z,4.34
2019-05-13T01:38:17.207Z,4.20
2019-05-13T01:41:24.128Z,3.95
2019-05-13T01:44:32.943Z,4.60
2019-05-13T01:47:39.001Z,4.54
2019-05-13T01:50:49.143Z,4.35
2019-05-13T01:53:55.651Z,4.06
2019-05-13T01:57:04.354Z,3.40
2019-05-13T02:00:13.784Z,4.11
2019-05-13T02:03:19.714Z,3.96
2019-05-13T02:06:26.239Z,3.45
2019-05-13T02:09:33.919Z,3.51
2019-05-13T02:12:44.295Z,3.54
2019-05-13T02:15:50.446Z,3.48
2019-05-13T02:18:56.941Z,3.63
2019-05-13T02:22:05.931Z,3.37
2019-05-13T02:25:13.917Z,3.63
2019-05-13T02:28:20.691Z,3.48
2019-05-13T02:31:44.960Z,2.99
2019-05-13T02:34:35.485Z,3.28
2019-05-13T02:37:43.487Z,2.93
2019-05-13T02:40:52.653Z,3.59
2019-05-13T02:43:58.839Z,3.42
2019-05-13T02:47:05.297Z,3.41
2019-05-13T02:50:13.086Z,2.96
2019-05-13T02:53:23.228Z,2.25
2019-05-13T02:56:28.108Z,2.21
2019-05-13T02:59:34.897Z,2.98
2019-05-13T03:02:43.755Z,2.26
2019-05-13T03:05:52.782Z,2.31
2019-05-13T03:08:59.123Z,2.92
2019-05-13T03:12:05.589Z,2.72
2019-05-13T03:15:13.388Z,2.14
2019-05-13T03:18:22.593Z,2.03
2019-05-13T03:21:28.349Z,2.25
2019-05-13T03:24:38.029Z,2.69
2019-05-13T03:27:44.904Z,2.33
2019-05-13T03:30:56.440Z,2.36
2019-05-13T03:34:05.567Z,1.89
2019-05-13T03:37:14.684Z,2.45
2019-05-13T03:40:17.714Z,2.07
2019-05-13T03:43:25.110Z,2.38
2019-05-13T03:46:34.462Z,1.96
2019-05-13T03:49:45.073Z,1.49
2019-05-13T03:52:52.484Z,2.01
2019-05-13T03:56:02.447Z,1.80
2019-05-13T03:59:08.070Z,2.61
2019-05-13T04:02:15.044Z,1.72
2019-05-13T04:05:23.678Z,1.68
2019-05-13T04:08:32.677Z,1.46
2019-05-13T04:11:42.369Z,1.69
2019-05-13T04:14:52.811Z,1.62
2019-05-13T04:18:02.805Z,1.60
2019-05-13T04:21:07.919Z,1.57
2019-05-13T04:24:14.610Z,2.30
2019-05-13T04:27:23.270Z,1.91
2019-05-13T04:30:32.781Z,1.51
2019-05-13T04:33:38.060Z,1.67
2019-05-13T04:36:46.215Z,1.67
2019-05-13T04:39:56.465Z,1.78
2019-05-13T04:43:02.948Z,2.24
2019-05-13T04:46:13.589Z,2.05
2019-05-13T04:49:18.157Z,2.05
2019-05-13T04:52:24.804Z,2.46
2019-05-13T04:55:33.315Z,2.85
2019-05-13T04:58:42.873Z,3.08
2019-05-13T05:02:39.929Z,3.29
2019-05-13T05:06:48.054Z,3.48
2019-05-13T05:10:53.561Z,3.68
2019-05-13T05:14:34.449Z,4.07
2019-05-13T05:18:22.185Z,4.26
2019-05-13T05:21:35.533Z,4.38
2019-05-13T05:25:14.812Z,4.23
2019-05-13T05:29:11.415Z,4.32
2019-05-13T05:33:03.103Z,4.52
2019-05-13T05:36:56.538Z,4.61
2019-05-13T05:40:06.477Z,4.74
2019-05-13T05:43:14.954Z,4.79
2019-05-13T05:46:23.205Z,4.93
2019-05-13T05:49:31.988Z,5.05
2019-05-13T05:52:41.949Z,5.04
2019-05-13T05:55:51.796Z,4.99
2019-05-13T05:59:02.877Z,5.22
2019-05-13T06:02:12.101Z,4.94
2019-05-13T06:05:21.352Z,5.68
2019-05-13T06:08:28.055Z,5.76
2019-05-13T06:11:34.887Z,5.69
2019-05-13T06:14:42.424Z,5.82
2019-05-13T06:17:51.810Z,6.05
2019-05-13T06:20:58.616Z,5.68
2019-05-13T06:24:05.256Z,5.94
2019-05-13T06:27:12.199Z,6.09
2019-05-13T06:30:21.530Z,6.02
2019-05-13T06:33:27.123Z,5.95
2019-05-13T06:36:34.015Z,6.02
2019-05-13T06:39:41.985Z,6.35
2019-05-13T06:42:48.738Z,6.41
2019-05-13T06:45:55.223Z,6.64
2019-05-13T06:49:02.950Z,6.48
2019-05-13T06:52:11.825Z,6.84
2019-05-13T06:55:18.284Z,6.74
2019-05-13T06:58:25.171Z,6.43
2019-05-13T07:01:32.392Z,6.99
2019-05-13T07:04:41.422Z,7.09
2019-05-13T07:07:48.620Z,6.68
2019-05-13T07:10:55.126Z,7.02
2019-05-13T07:14:02.582Z,7.26
2019-05-13T07:17:09.496Z,7.12
2019-05-13T07:20:16.660Z,6.87
2019-05-13T07:23:23.531Z,7.28
2019-05-13T07:26:31.482Z,6.88
2019-05-13T07:29:39.218Z,7.11
2019-05-13T07:32:46.982Z,7.53
2019-05-13T07:35:58.188Z,7.86
2019-05-13T07:39:06.250Z,7.62
2019-05-13T07:42:12.887Z,7.41
2019-05-13T07:45:21.316Z,7.60
2019-05-13T07:48:31.928Z,7.24
2019-05-13T07:51:38.647Z,7.83
2019-05-13T07:54:46.887Z,7.83
2019-05-13T07:57:53.522Z,8.15
2019-05-13T08:01:02.424Z,8.41
2019-05-13T08:04:21.149Z,8.22
2019-05-13T08:07:16.317Z,8.09
2019-05-13T08:10:23.355Z,8.23
2019-05-13T08:13:31.447Z,8.55
2019-05-13T08:16:38.205Z,8.67
2019-05-13T08:19:46.220Z,8.68
2019-05-13T08:22:52.873Z,8.95
2019-05-13T08:26:01.978Z,8.84
2019-05-13T08:29:07.898Z,8.92
2019-05-13T08:32:14.470Z,8.95
2019-05-13T08:35:22.612Z,9.08
2019-05-13T08:38:31.813Z,9.06
2019-05-13T08:41:38.068Z,8.70
2019-05-13T08:44:45.788Z,8.94
2019-05-13T08:47:52.380Z,9.50
2019-05-13T08:50:58.908Z,9.53
2019-05-13T08:54:05.484Z,9.60
2019-05-13T08:57:14.239Z,9.54
2019-05-13T09:00:53.090Z,10.03
2019-05-13T09:04:02.367Z,9.54
2019-05-13T09:07:08.307Z,9.78
2019-05-13T09:10:15.083Z,10.07
2019-05-13T09:13:22.485Z,9.98
2019-05-13T09:16:32.060Z,9.86
2019-05-13T09:19:41.264Z,9.86
2019-05-13T09:22:47.336Z,9.90
2019-05-13T09:25:53.868Z,10.15
2019-05-13T09:29:01.472Z,10.30
2019-05-13T09:32:08.396Z,10.13
2019-05-13T09:35:15.069Z,10.25
2019-05-13T09:38:22.282Z,10.28
2019-05-13T09:41:31.927Z,9.80
2019-05-13T09:44:41.912Z,10.24
2019-05-13T09:47:48.799Z,10.56
2019-05-13T09:50:55.492Z,10.85
2019-05-13T09:54:02.172Z,10.44
2019-05-13T09:57:08.939Z,10.40
2019-05-13T10:00:21.627Z,10.58
2019-05-13T10:03:29.737Z,11.11
2019-05-13T10:06:35.683Z,11.22
2019-05-13T10:09:43.130Z,9.87
2019-05-13T10:13:07.422Z,10.49
2019-05-13T10:15:59.720Z,10.89
2019-05-13T10:19:06.537Z,11.04
2019-05-13T10:22:13.273Z,10.86
2019-05-13T10:25:22.407Z,10.98
2019-05-13T10:28:32.025Z,11.10
2019-05-13T10:31:38.937Z,11.23
2019-05-13T10:34:47.035Z,10.76
2019-05-13T10:37:53.631Z,10.71
2019-05-13T10:41:02.843Z,11.38
2019-05-13T10:44:08.510Z,11.19
2019-05-13T10:47:15.075Z,10.99
2019-05-13T10:50:24.774Z,11.02
2019-05-13T10:53:32.068Z,11.03
2019-05-13T10:56:38.158Z,11.18
2019-05-13T10:59:46.283Z,11.16
2019-05-13T11:02:52.893Z,11.55
2019-05-13T11:05:59.498Z,11.62
2019-05-13T11:09:08.813Z,11.18
2019-05-13T11:12:15.375Z,10.47
2019-05-13T11:15:21.915Z,11.17
2019-05-13T11:18:28.583Z,11.58
2019-05-13T11:21:35.208Z,11.38
2019-05-13T11:24:43.230Z,11.94
2019-05-13T11:27:52.989Z,11.59
2019-05-13T11:31:02.404Z,11.70
2019-05-13T11:34:08.299Z,11.76
2019-05-13T11:37:14.785Z,11.87
2019-05-13T11:40:22.518Z,11.75
2019-05-13T11:43:29.136Z,11.86
2019-05-13T11:46:36.209Z,11.49
2019-05-13T11:49:42.984Z,12.04
2019-05-13T11:52:52.435Z,11.91
2019-05-13T11:56:03.251Z,11.80
2019-05-13T11:59:07.999Z,12.09
2019-05-13T12:02:14.627Z,11.81
2019-05-13T12:05:22.589Z,12.36
2019-05-13T12:08:33.114Z,11.15
2019-05-13T12:11:37.942Z,11.63
2019-05-13T12:15:18.100Z,11.91
2019-05-13T12:17:54.484Z,11.84
2019-05-13T12:21:03.359Z,12.15
2019-05-13T12:24:11.301Z,11.98
2019-05-13T12:27:17.737Z,12.37
2019-05-13T12:30:24.471Z,11.62
2019-05-13T12:33:32.663Z,11.96
2019-05-13T12:36:43.320Z,11.66
2019-05-13T12:39:49.629Z,12.01
2019-05-13T12:43:01.457Z,12.29
2019-05-13T12:46:08.715Z,12.26
2019-05-13T12:49:15.286Z,12.12
2019-05-13T12:52:22.825Z,12.15
2019-05-13T12:55:32.834Z,12.24
2019-05-13T12:58:38.019Z,11.98
2019-05-13T13:01:46.024Z,12.10
2019-05-13T13:05:10.473Z,12.12
2019-05-13T13:08:18.435Z,12.13
2019-05-13T13:11:09.578Z,12.72
2019-05-13T13:14:17.296Z,12.67
2019-05-13T13:17:26.030Z,12.56
2019-05-13T13:20:35.542Z,12.31
2019-05-13T13:23:42.825Z,12.63
2019-05-13T13:26:53.378Z,12.79
2019-05-13T13:33:08.600Z,12.28
2019-05-13T13:39:25.208Z,11.53
2019-05-13T13:42:33.027Z,11.60
2019-05-13T13:48:48.042Z,11.87
2019-05-13T13:51:54.527Z,11.81
2019-05-13T13:55:04.415Z,11.46
2019-05-13T13:58:09.235Z,11.93
2019-05-13T14:01:19.742Z,11.88
2019-05-13T14:04:24.029Z,11.36
2019-05-13T14:06:58.552Z,11.97
2019-05-13T14:07:08.884Z,12.49
2019-05-13T14:07:37.744Z,11.44
2019-05-13T14:10:38.906Z,11.60
2019-05-13T14:13:48.413Z,11.64
2019-05-13T14:16:55.125Z,11.74
2019-05-13T14:20:01.648Z,11.54
2019-05-13T14:23:08.412Z,11.34
2019-05-13T14:26:17.275Z,11.26
2019-05-13T14:29:37.449Z,11.19
2019-05-13T14:32:32.176Z,11.39
2019-05-13T14:35:41.422Z,11.16
2019-05-13T14:38:47.625Z,11.11
2019-05-13T14:41:54.227Z,11.26
2019-05-13T14:45:01.926Z,11.34
2019-05-13T14:48:08.754Z,11.14
2019-05-13T14:51:15.200Z,11.23
2019-05-13T14:54:21.696Z,11.77
2019-05-13T14:57:28.823Z,11.73
2019-05-13T15:00:35.357Z,11.89
2019-05-13T15:03:41.891Z,11.86
2019-05-13T15:06:48.672Z,12.21
2019-05-13T15:09:55.200Z,12.13
2019-05-13T15:13:03.024Z,12.17
2019-05-13T15:16:09.858Z,12.05
2019-05-13T15:19:16.653Z,11.70
2019-05-13T15:22:23.092Z,11.38
2019-05-13T15:25:31.399Z,11.35
2019-05-13T15:28:38.175Z,11.34
2019-05-13T15:31:46.051Z,11.53
2019-05-13T15:34:52.730Z,11.75
2019-05-13T15:37:59.330Z,11.46
2019-05-13T15:41:07.535Z,12.08
2019-05-13T15:44:14.254Z,12.25
2019-05-13T15:47:24.103Z,12.18
2019-05-13T15:50:31.299Z,12.63
2019-05-13T15:53:38.160Z,12.46
2019-05-13T15:56:44.866Z,12.29
2019-05-13T15:59:51.895Z,12.23
2019-05-13T16:03:01.752Z,11.87
2019-05-13T16:06:08.249Z,11.75
2019-05-13T16:09:15.185Z,11.88
2019-05-13T16:12:23.059Z,11.52
2019-05-13T16:15:32.097Z,11.49
2019-05-13T16:18:38.471Z,11.79
2019-05-13T16:21:46.104Z,11.46
2019-05-13T16:24:52.723Z,11.88
2019-05-13T16:28:01.178Z,11.27
2019-05-13T16:31:07.896Z,11.27
2019-05-13T16:34:14.431Z,11.13
2019-05-13T16:37:22.184Z,11.33
2019-05-13T16:40:33.569Z,11.45
2019-05-13T16:43:37.565Z,11.11
2019-05-13T16:46:46.700Z,11.55
2019-05-13T16:49:53.380Z,11.70
2019-05-13T16:53:01.905Z,11.46
2019-05-13T16:56:08.030Z,11.23
2019-05-13T16:59:14.766Z,11.27
2019-05-13T17:02:22.863Z,11.18
2019-05-13T17:05:29.370Z,10.75
2019-05-13T17:08:36.021Z,10.67
2019-05-13T17:11:43.391Z,10.81
2019-05-13T17:14:52.321Z,10.81
2019-05-13T17:18:09.291Z,10.83
2019-05-13T17:21:07.867Z,10.67
2019-05-13T17:24:14.527Z,10.70
2019-05-13T17:27:21.376Z,10.35
2019-05-13T17:30:28.000Z,10.59
2019-05-13T17:33:34.834Z,10.59
2019-05-13T17:36:42.050Z,10.57
2019-05-13T17:39:48.971Z,10.62
2019-05-13T17:42:56.520Z,10.37
2019-05-13T17:46:03.034Z,10.31
2019-05-13T17:49:11.800Z,10.51
2019-05-13T17:52:17.996Z,10.57
2019-05-13T17:55:24.806Z,10.51
2019-05-13T17:58:31.889Z,10.33
2019-05-13T18:01:38.438Z,10.33
2019-05-13T18:04:48.493Z,10.16
2019-05-13T18:07:55.082Z,10.01
2019-05-13T18:11:02.328Z,10.01
2019-05-13T18:14:11.242Z,9.86
2019-05-13T18:17:17.283Z,9.74
2019-05-13T18:20:23.782Z,9.54
2019-05-13T18:23:30.391Z,9.83
2019-05-13T18:26:36.845Z,8.85
2019-05-13T18:29:43.536Z,9.15
2019-05-13T18:32:51.800Z,9.30
2019-05-13T18:36:01.558Z,8.93
2019-05-13T18:39:12.114Z,8.57
2019-05-13T18:42:17.909Z,8.71
2019-05-13T18:45:24.686Z,8.52
2019-05-13T18:48:32.267Z,8.53
2019-05-13T18:51:42.263Z,8.39
2019-05-13T18:54:51.413Z,8.24
2019-05-13T18:58:01.077Z,8.04
2019-05-13T19:01:07.446Z,7.88
2019-05-13T19:04:13.975Z,7.45
2019-05-13T19:07:21.872Z,7.05
2019-05-13T19:10:28.570Z,7.10
2019-05-13T19:13:34.977Z,6.86
2019-05-13T19:16:42.219Z,6.64
2019-05-13T19:19:51.460Z,6.62
2019-05-13T19:22:57.981Z,6.25
2019-05-13T19:26:04.650Z,6.07
2019-05-13T19:29:11.643Z,6.37
2019-05-13T19:32:21.847Z,5.83
2019-05-13T19:35:28.511Z,5.62
2019-05-13T19:38:35.394Z,5.89
2019-05-13T19:41:42.435Z,5.46
2019-05-13T19:44:51.046Z,5.75
2019-05-13T19:48:01.275Z,6.38
2019-05-13T19:51:08.126Z,6.47
2019-05-13T19:54:14.827Z,6.38
2019-05-13T19:57:21.440Z,6.38
2019-05-13T20:00:27.952Z,6.47
2019-05-13T20:03:34.589Z,6.49
2019-05-13T20:06:41.559Z,6.34
2019-05-13T20:09:48.390Z,6.28
2019-05-13T20:12:54.865Z,6.32
2019-05-13T20:16:01.681Z,6.40
2019-05-13T20:19:08.813Z,6.29
2019-05-13T20:22:16.427Z,6.44
2019-05-13T20:25:22.977Z,6.71
2019-05-13T20:28:31.647Z,6.22
2019-05-13T20:31:38.025Z,6.41
2019-05-13T20:34:47.063Z,5.91
2019-05-13T20:37:53.562Z,5.88
2019-05-13T20:41:01.614Z,5.87
2019-05-13T20:44:08.187Z,5.94
2019-05-13T20:47:14.690Z,5.97
2019-05-13T20:50:21.882Z,5.89
2019-05-13T20:53:31.195Z,6.01
2019-05-13T20:56:37.721Z,5.56
2019-05-13T20:59:44.153Z,5.95
2019-05-13T21:02:51.675Z,5.91
2019-05-13T21:05:58.533Z,5.43
2019-05-13T21:09:06.420Z,5.47
2019-05-13T21:12:13.082Z,5.07
2019-05-13T21:15:19.893Z,5.37
2019-05-13T21:18:26.533Z,4.86
2019-05-13T21:21:33.035Z,5.52
2019-05-13T21:24:41.224Z,4.18
2019-05-13T21:27:47.932Z,5.14
2019-05-13T21:30:54.598Z,5.64
2019-05-13T21:34:01.490Z,5.28
2019-05-13T21:37:11.644Z,5.50
2019-05-13T21:40:21.528Z,5.67
2019-05-13T21:43:28.380Z,4.90
2019-05-13T21:46:35.561Z,5.40
2019-05-13T21:49:42.447Z,5.53
2019-05-13T21:52:51.463Z,5.69
2019-05-13T21:55:57.456Z,5.91
2019-05-13T21:59:05.408Z,6.17
2019-05-13T22:02:12.135Z,6.20
2019-05-13T22:05:18.872Z,5.53
2019-05-13T22:08:25.436Z,6.01
2019-05-13T22:11:34.720Z,5.61
2019-05-13T22:14:41.200Z,5.97
2019-05-13T22:17:51.168Z,5.34
2019-05-13T22:20:57.291Z,5.70
2019-05-13T22:24:03.926Z,5.08
2019-05-13T22:27:13.000Z,5.70
2019-05-13T22:30:18.803Z,5.51
2019-05-13T22:33:25.445Z,5.80
2019-05-13T22:36:31.969Z,5.47
2019-05-13T22:39:38.517Z,5.46
2019-05-13T22:42:46.750Z,5.78
2019-05-13T22:45:54.441Z,5.50
2019-05-13T22:49:01.228Z,5.54
2019-05-13T22:52:07.996Z,5.74
2019-05-13T22:55:14.619Z,5.95
2019-05-13T22:58:22.498Z,5.62
2019-05-13T23:01:29.208Z,5.68
2019-05-13T23:04:36.796Z,5.83
2019-05-13T23:07:45.997Z,5.72
2019-05-13T23:10:52.564Z,5.78
2019-05-13T23:14:09.670Z,5.77
2019-05-13T23:17:08.838Z,5.78
2019-05-13T23:20:15.502Z,4.92
2019-05-13T23:23:23.674Z,5.51
2019-05-13T23:26:31.540Z,5.58
2019-05-13T23:29:38.480Z,5.61
2019-05-13T23:32:45.329Z,5.65
2019-05-13T23:35:51.904Z,5.67
2019-05-13T23:38:58.561Z,5.70
2019-05-13T23:42:07.204Z,5.49
2019-05-13T23:45:13.773Z,5.56
2019-05-13T23:48:21.768Z,5.40
2019-05-13T23:51:28.348Z,5.13
2019-05-13T23:54:34.989Z,4.73
2019-05-13T23:57:42.144Z,5.19
